»·PEaware :: UPS123 KOAK-KONT

UPS123 :: KOAK-KONT

FLIGHT INFORMATION

Flight Status: Arrived
Operator:
United Parcel Service
More flights by this operator :: More flights under this callsign
Pilot: Robert F. (26765)
Aircraft: Unknown
(B748)
More flights by this aircraft type
Origin: KOAK Metro Oakland Intl
United States
Destination: KONT Ontario Intl
United States
More flights between these airports :: More routes between these airports
Route: +CNDEL4 LOSHN EHF ZIGGY7
File this flight plan on PilotEdge
Remarks: RMK / SIMBRIEF / HTTPS / / UPSVAC.COM
Altitude:
(Current/Filed)
37,000ft
Speed:
(Current/Filed)
483kts
Departed: 03-Nov-19 02:52 PM
Arrived: 03-Nov-19 03:52 PM
Distance/Time
Traveled:
315nm/1:00
Distance/Time
To Go:
Arrived

Flight Plot

Page will automatically refresh every two minutes.

Flight plan parsing failed; only flown route is shown


Map Options




Map Legend


Flown Route
Filed Route
Departure Airport
Arrival Airport
Navaid (VOR, NDB)
Fix

Horizontal Profiles

Position Reports

Time Latitude Longitude Heading Altitude Ground
Speed
03-Nov-19 13:54 37.718122 -122.219168 315 19ft 0kts
03-Nov-19 13:55 37.718122 -122.219168 315 19ft 0kts
03-Nov-19 13:56 37.718122 -122.219168 315 19ft 0kts
03-Nov-19 13:57 37.718122 -122.219168 315 19ft 0kts
03-Nov-19 13:58 37.718122 -122.219168 315 19ft 0kts
03-Nov-19 13:59 37.718122 -122.219168 315 19ft 0kts
03-Nov-19 14:00 37.718122 -122.219168 315 19ft 0kts
03-Nov-19 14:01 37.718122 -122.219168 315 19ft 0kts
03-Nov-19 14:02 37.718122 -122.219168 315 19ft 0kts
03-Nov-19 14:03 37.718122 -122.219168 315 19ft 0kts
03-Nov-19 14:04 37.718122 -122.219168 315 19ft 0kts
03-Nov-19 14:05 37.718122 -122.219168 315 19ft 0kts
03-Nov-19 14:06 37.718122 -122.219168 315 19ft 0kts
03-Nov-19 14:07 37.718122 -122.219168 315 19ft 0kts
03-Nov-19 14:08 37.718122 -122.219168 315 19ft 0kts
03-Nov-19 14:09 37.718122 -122.219168 315 19ft 0kts
03-Nov-19 14:10 37.718122 -122.219168 315 19ft 0kts
03-Nov-19 14:11 37.718122 -122.219168 315 19ft 0kts
03-Nov-19 14:12 37.718122 -122.219168 315 19ft 0kts
03-Nov-19 14:13 37.718122 -122.219168 315 19ft 0kts
03-Nov-19 14:14 37.718122 -122.219168 315 19ft 0kts
03-Nov-19 14:15 37.718122 -122.219168 315 19ft 0kts
03-Nov-19 14:16 37.718122 -122.219168 315 19ft 0kts
03-Nov-19 14:17 37.718122 -122.219168 315 19ft 0kts
03-Nov-19 14:18 37.718122 -122.219168 315 19ft 0kts
03-Nov-19 14:19 37.718122 -122.219168 315 19ft 0kts
03-Nov-19 14:20 37.718122 -122.219168 315 19ft 0kts
03-Nov-19 14:21 37.718122 -122.219168 315 19ft 0kts
03-Nov-19 14:22 37.718122 -122.219168 315 19ft 0kts
03-Nov-19 14:23 37.718122 -122.219168 315 19ft 0kts
03-Nov-19 14:24 37.718122 -122.219168 315 19ft 0kts
03-Nov-19 14:25 37.718122 -122.219168 315 19ft 0kts
03-Nov-19 14:26 37.718122 -122.219168 315 19ft 0kts
03-Nov-19 14:27 37.718122 -122.219168 315 19ft 0kts
03-Nov-19 14:28 37.718122 -122.219168 315 19ft 0kts
03-Nov-19 14:29 37.718122 -122.219168 315 19ft 0kts
03-Nov-19 14:30 37.717893 -122.218902 321 19ft 2kts
03-Nov-19 14:31 37.717392 -122.218382 319 19ft 2kts
03-Nov-19 14:32 37.717028 -122.217986 319 19ft 0kts
03-Nov-19 14:33 37.717028 -122.217986 319 19ft 0kts
03-Nov-19 14:34 37.717028 -122.217986 319 19ft 0kts
03-Nov-19 14:35 37.717028 -122.217986 318 19ft 0kts
03-Nov-19 14:36 37.717029 -122.217987 318 19ft 0kts
03-Nov-19 14:37 37.717030 -122.217988 318 19ft 0kts
03-Nov-19 14:38 37.717031 -122.217989 318 19ft 0kts
03-Nov-19 14:39 37.717135 -122.218112 312 19ft 2kts
03-Nov-19 14:40 37.716986 -122.218989 236 19ft 4kts
03-Nov-19 14:41 37.715645 -122.219070 186 19ft 7kts
03-Nov-19 14:42 37.713780 -122.221113 224 19ft 11kts
03-Nov-19 14:43 37.711433 -122.224066 225 19ft 8kts
03-Nov-19 14:44 37.709834 -122.223071 129 19ft 9kts
03-Nov-19 14:45 37.707727 -122.219843 129 19ft 14kts
03-Nov-19 14:46 37.705148 -122.215916 129 19ft 15kts
03-Nov-19 14:47 37.703084 -122.213775 163 19ft 5kts
03-Nov-19 14:48 37.702364 -122.213831 206 19ft 0kts
03-Nov-19 14:49 37.702321 -122.213858 206 19ft 2kts
03-Nov-19 14:50 37.702114 -122.215205 311 19ft 0kts
03-Nov-19 14:51 37.715795 -122.235801 309 63ft 181kts
03-Nov-19 14:52 37.755203 -122.294942 309 1845ft 258kts
03-Nov-19 14:53 37.795414 -122.369341 275 4335ft 270kts
03-Nov-19 14:54 37.745002 -122.429898 191 7524ft 290kts
03-Nov-19 14:55 37.662775 -122.441497 186 9931ft 303kts
03-Nov-19 14:56 37.567560 -122.459366 189 10002ft 384kts
03-Nov-19 14:57 37.466539 -122.436632 139 10360ft 388kts
03-Nov-19 14:58 37.395604 -122.331755 126 13938ft 400kts
03-Nov-19 14:59 37.325238 -122.220583 127 17477ft 415kts
03-Nov-19 15:00 37.251162 -122.105677 126 20280ft 430kts
03-Nov-19 15:01 37.174323 -121.986745 126 23195ft 447kts
03-Nov-19 15:02 37.094086 -121.863625 126 25798ft 463kts
03-Nov-19 15:03 37.011259 -121.737100 126 27923ft 478kts
03-Nov-19 15:04 36.925485 -121.606586 126 29649ft 491kts
03-Nov-19 15:05 36.837793 -121.473681 126 31284ft 496kts
03-Nov-19 15:06 36.749991 -121.341130 126 32851ft 496kts
03-Nov-19 15:07 36.662041 -121.208390 126 34212ft 496kts
03-Nov-19 15:08 36.573997 -121.076711 127 35467ft 494kts
03-Nov-19 15:09 36.485868 -120.945463 127 36601ft 492kts
03-Nov-19 15:10 36.398405 -120.814653 127 37015ft 492kts
03-Nov-19 15:11 36.310725 -120.684077 128 37014ft 492kts
03-Nov-19 15:12 36.223369 -120.553584 127 37019ft 492kts
03-Nov-19 15:13 36.135564 -120.423099 128 37023ft 493kts
03-Nov-19 15:14 36.047624 -120.293029 127 37024ft 493kts
03-Nov-19 15:15 35.959671 -120.163331 128 37024ft 493kts
03-Nov-19 15:16 35.870975 -120.033602 128 37025ft 493kts
03-Nov-19 15:17 35.802236 -119.888413 113 37025ft 490kts
03-Nov-19 15:18 35.742978 -119.737508 114 37027ft 490kts
03-Nov-19 15:19 35.682935 -119.587320 114 37029ft 490kts
03-Nov-19 15:20 35.622853 -119.436933 114 37030ft 490kts
03-Nov-19 15:21 35.562687 -119.287660 114 37029ft 490kts
03-Nov-19 15:22 35.501677 -119.138064 116 37028ft 490kts
03-Nov-19 15:23 35.405627 -119.019633 141 36773ft 495kts
03-Nov-19 15:24 35.295918 -118.917143 141 36703ft 496kts
03-Nov-19 15:25 35.187039 -118.814244 141 34624ft 490kts
03-Nov-19 15:26 35.081239 -118.713755 137 32802ft 472kts
03-Nov-19 15:27 34.997794 -118.594183 127 31045ft 455kts
03-Nov-19 15:29 34.917507 -118.478149 128 29285ft 441kts
03-Nov-19 15:30 34.839312 -118.364823 128 27454ft 431kts
03-Nov-19 15:31 34.763444 -118.253998 129 25635ft 420kts
03-Nov-19 15:32 34.690304 -118.148590 130 24636ft 388kts
03-Nov-19 15:33 34.625504 -118.051717 123 23933ft 353kts
03-Nov-19 15:34 34.577612 -117.946519 118 21844ft 351kts
03-Nov-19 15:35 34.531762 -117.845135 119 19928ft 335kts
03-Nov-19 15:36 34.487555 -117.749031 119 18108ft 318kts
03-Nov-19 15:37 34.445424 -117.657669 118 16349ft 302kts
03-Nov-19 15:38 34.403964 -117.567778 118 14651ft 307kts
03-Nov-19 15:39 34.363598 -117.480439 118 13352ft 288kts
03-Nov-19 15:40 34.324993 -117.397137 117 11491ft 282kts
03-Nov-19 15:41 34.271628 -117.332439 161 9678ft 281kts
03-Nov-19 15:42 34.220808 -117.270317 112 8269ft 261kts
03-Nov-19 15:43 34.185346 -117.205358 167 8003ft 214kts
03-Nov-19 15:43 34.138113 -117.214527 191 7492ft 204kts
03-Nov-19 15:45 34.076152 -117.237133 224 5254ft 200kts
03-Nov-19 15:46 34.051954 -117.294480 263 4040ft 179kts
03-Nov-19 15:46 34.053351 -117.343200 272 3994ft 173kts
03-Nov-19 15:48 34.054026 -117.410962 270 3796ft 166kts
03-Nov-19 15:49 34.054284 -117.465800 270 2826ft 162kts
03-Nov-19 15:49 34.054487 -117.510222 270 2124ft 152kts
03-Nov-19 15:50 34.054715 -117.560405 270 1326ft 149kts
03-Nov-19 15:52 34.054880 -117.600608 269 957ft 18kts
03-Nov-19 15:52 34.054552 -117.601884 235 957ft 1kts
03-Nov-19 15:53 34.053866 -117.601913 99 957ft 9kts
03-Nov-19 15:55 34.053788 -117.594901 90 957ft 18kts
03-Nov-19 15:55 34.053761 -117.590610 90 957ft 12kts
03-Nov-19 15:56 34.053740 -117.586213 90 957ft 14kts
03-Nov-19 15:57 34.053189 -117.582782 158 957ft 7kts
03-Nov-19 15:58 34.052262 -117.580473 91 957ft 10kts
03-Nov-19 15:59 34.051461 -117.578761 243 957ft 5kts
03-Nov-19 16:00 34.051364 -117.580692 270 957ft 4kts
03-Nov-19 16:01 34.051368 -117.581509 270 957ft 0kts
03-Nov-19 16:02 34.051368 -117.581510 270 957ft 0kts
03-Nov-19 16:03 34.051368 -117.581510 270 957ft 0kts
03-Nov-19 16:04 34.051368 -117.581510 270 957ft 0kts
03-Nov-19 16:05 34.051364 -117.581512 270 957ft 0kts

Navigation Log

Ident Type
Flight plan parsing failed, navigation log unavailable